Chicago O'Hare International, Illinois
Current Conditions -  °F | °C
As of 6:51 AM on Tuesday 21 Oct 2014 (Local Time) from KORD Reporting Station
Few Clouds Few Clouds  
Wind Chill: 41°   Ceiling: Unl
Heat Index: 46°   Visibility: 10mi
Dew Point: 39°   Wind: 12mph
Humidity: 76%   Direction: 340°NNW
Pressure: 30.09"   Gusts: NA
Location:  41.98°N, 87.9°W
Report Text: KORD 211151Z 34010KT 10SM FEW021 FEW050 08/04 A3009 RMK AO2 SLP192 T00780039 10106 20072 51024 $
Loading
Personal Weather Stations






























Interactive Weather Map
Tropical Storm Tracking
New forecast layout! Learn more

10-Day Weather Forecast

Advertisements
Track Severe Weather on mobile